Time;durP1;ratioP1;P1;durP2;ratioP2;P2;SDS_P1;SDS_P2;PMS_P1;PMS_P2;Temp;Humidity;BMP_temperature;BMP_pressure;BME280_temperature;BME280_humidity;BME280_pressure;Samples;Min_cycle;Max_cycle;Signal;HPM_P1;HPM_P2
2023/04/18 00:01:01;;;;;;;21.17;12.40;;;7.30;99.90;;;;;;5090060;28;20031;-45
2023/04/18 00:03:28;;;;;;;22.90;13.63;;;7.30;99.90;;;;;;5108384;28;20023;-45
2023/04/18 00:05:54;;;;;;;20.55;12.32;;;7.30;99.90;;;;;;5108681;28;20110;-45
2023/04/18 00:08:19;;;;;;;21.08;13.32;;;7.30;99.90;;;;;;5108224;28;20141;-45
2023/04/18 00:10:45;;;;;;;19.95;12.02;;;7.30;99.90;;;;;;5107750;28;20019;-46
2023/04/18 00:13:11;;;;;;;17.67;11.50;;;7.30;99.90;;;;;;5108224;28;20027;-45
2023/04/18 00:15:36;;;;;;;22.20;12.88;;;7.30;99.90;;;;;;5108458;28;20024;-45
2023/04/18 00:18:02;;;;;;;24.10;12.85;;;7.30;99.90;;;;;;5108491;28;20497;-46
2023/04/18 00:20:28;;;;;;;22.45;13.88;;;7.30;99.90;;;;;;5108837;27;20028;-46
2023/04/18 00:22:54;;;;;;;25.10;15.43;;;7.20;99.90;;;;;;5108491;28;20121;-45
2023/04/18 00:25:20;;;;;;;21.58;13.32;;;7.30;99.90;;;;;;5108213;28;20041;-45
2023/04/18 00:27:46;;;;;;;23.15;15.30;;;7.30;99.90;;;;;;5108132;28;20020;-45
2023/04/18 00:30:12;;;;;;;19.90;13.10;;;7.30;99.90;;;;;;5089523;28;20066;-46
2023/04/18 00:32:37;;;;;;;23.75;15.05;;;7.30;99.90;;;;;;5108259;28;20579;-48
2023/04/18 00:35:04;;;;;;;24.58;15.45;;;7.30;99.90;;;;;;5108291;28;20031;-47
2023/04/18 00:37:29;;;;;;;23.67;14.88;;;7.20;99.90;;;;;;5108117;28;20606;-47
2023/04/18 00:39:55;;;;;;;24.73;14.52;;;7.20;99.90;;;;;;5107682;28;20016;-49
2023/04/18 00:42:20;;;;;;;24.95;14.77;;;7.20;99.90;;;;;;5108117;28;20016;-46
2023/04/18 00:44:46;;;;;;;23.00;13.85;;;7.20;99.90;;;;;;5107809;28;20393;-46
2023/04/18 00:47:13;;;;;;;21.58;14.77;;;7.20;99.90;;;;;;5107944;28;20030;-46
2023/04/18 00:49:39;;;;;;;21.88;14.15;;;7.20;99.90;;;;;;5105629;27;20169;-46
2023/04/18 00:52:05;;;;;;;25.13;16.33;;;7.20;99.90;;;;;;5107626;28;20607;-47
2023/04/18 00:54:31;;;;;;;25.20;16.08;;;7.10;99.90;;;;;;5107502;28;20098;-46
2023/04/18 00:56:56;;;;;;;24.88;14.80;;;7.10;99.90;;;;;;5107446;28;20032;-46
2023/04/18 00:59:22;;;;;;;25.00;15.65;;;7.10;99.90;;;;;;5107655;28;20023;-47
2023/04/18 01:01:48;;;;;;;26.63;16.45;;;7.10;99.90;;;;;;5107450;28;20028;-47
2023/04/18 01:04:13;;;;;;;34.25;18.08;;;7.10;99.90;;;;;;5107830;28;20027;-46
2023/04/18 01:06:39;;;;;;;31.20;17.17;;;7.00;99.90;;;;;;5107772;28;20094;-46
2023/04/18 01:09:05;;;;;;;27.20;17.02;;;7.10;99.90;;;;;;5107435;28;20497;-46
2023/04/18 01:11:31;;;;;;;26.05;16.80;;;7.10;99.90;;;;;;5107148;28;20023;-47
2023/04/18 01:14:04;;;;;;;26.80;16.15;;;7.00;99.90;;;;;;5106815;28;20203;-46
2023/04/18 01:16:35;;;;;;;28.20;17.00;;;7.00;99.90;;;;;;5107146;28;20022;-47
2023/04/18 01:19:02;;;;;;;26.98;17.23;;;7.00;99.90;;;;;;5105332;28;20016;-49
2023/04/18 01:21:36;;;;;;;26.48;16.67;;;7.00;99.90;;;;;;5107017;28;20019;-46
2023/04/18 01:24:10;;;;;;;30.90;18.88;;;7.10;99.90;;;;;;5104591;28;20507;-48
2023/04/18 01:26:36;;;;;;;27.95;17.45;;;7.00;99.90;;;;;;5107474;28;20477;-46
2023/04/18 01:29:02;;;;;;;30.48;18.30;;;7.10;99.90;;;;;;5107233;28;20020;-45
2023/04/18 01:31:28;;;;;;;36.10;18.52;;;7.00;99.90;;;;;;5107403;28;20106;-46
2023/04/18 01:33:53;;;;;;;31.08;17.67;;;7.00;99.90;;;;;;5106886;28;20557;-48
2023/04/18 01:36:19;;;;;;;29.67;19.05;;;7.10;99.90;;;;;;5088747;28;20437;-46
2023/04/18 01:38:45;;;;;;;30.02;18.23;;;7.00;99.90;;;;;;5106689;28;20024;-46
2023/04/18 01:41:10;;;;;;;28.48;17.17;;;7.00;99.90;;;;;;5106649;28;20023;-48
2023/04/18 01:43:36;;;;;;;32.67;17.95;;;7.00;99.90;;;;;;5107311;28;20192;-46
2023/04/18 01:46:01;;;;;;;35.33;19.15;;;7.00;99.90;;;;;;5107300;28;20103;-45
2023/04/18 01:48:27;;;;;;;34.55;19.40;;;7.00;99.90;;;;;;5107641;28;20029;-45
2023/04/18 01:50:52;;;;;;;25.73;17.27;;;7.00;99.90;;;;;;5088010;28;20122;-45
2023/04/18 01:53:18;;;;;;;26.27;16.50;;;7.00;99.90;;;;;;5107140;28;20020;-45
2023/04/18 01:55:43;;;;;;;28.25;16.75;;;7.10;99.90;;;;;;5107304;28;20349;-46
2023/04/18 01:58:09;;;;;;;31.88;18.00;;;7.00;99.90;;;;;;5107089;28;20016;-46
2023/04/18 02:00:34;;;;;;;29.08;17.23;;;7.00;99.90;;;;;;5088482;28;20058;-47
2023/04/18 02:03:00;;;;;;;26.80;17.70;;;7.10;99.90;;;;;;5088792;28;20485;-45
2023/04/18 02:05:28;;;;;;;30.00;19.10;;;7.10;99.90;;;;;;5107137;28;20073;-46
2023/04/18 02:07:53;;;;;;;29.55;18.02;;;7.10;99.90;;;;;;5107447;28;20046;-45
2023/04/18 02:10:20;;;;;;;28.45;18.20;;;7.10;99.90;;;;;;5103837;28;20024;-45
2023/04/18 02:12:45;;;;;;;32.58;17.10;;;7.10;99.90;;;;;;5106910;28;20089;-45
2023/04/18 02:15:11;;;;;;;28.17;16.15;;;7.10;99.90;;;;;;5107081;28;20050;-45
2023/04/18 02:17:36;;;;;;;29.20;17.13;;;7.10;99.90;;;;;;5107049;28;20517;-45
2023/04/18 02:20:02;;;;;;;25.83;16.52;;;7.10;99.90;;;;;;5101826;28;20024;-46
2023/04/18 02:22:28;;;;;;;26.10;16.95;;;7.10;99.90;;;;;;5108296;28;20102;-46
2023/04/18 02:24:53;;;;;;;26.50;17.10;;;7.10;99.90;;;;;;5106419;28;20035;-46
2023/04/18 02:27:19;;;;;;;29.25;17.80;;;7.10;99.90;;;;;;5110826;28;20315;-46
2023/04/18 02:29:45;;;;;;;26.05;16.45;;;7.10;99.90;;;;;;5110928;28;20361;-46
2023/04/18 02:32:10;;;;;;;28.35;17.10;;;7.00;99.90;;;;;;5110823;28;20032;-46
2023/04/18 02:34:36;;;;;;;28.33;17.20;;;7.10;99.90;;;;;;5110645;28;20024;-46
2023/04/18 02:37:02;;;;;;;26.75;17.35;;;7.10;99.90;;;;;;5110583;28;20080;-46
2023/04/18 02:39:27;;;;;;;29.55;17.33;;;7.00;99.90;;;;;;5109719;28;20026;-46
2023/04/18 02:41:53;;;;;;;26.38;16.95;;;7.10;99.90;;;;;;5110406;28;20165;-47
2023/04/18 02:44:18;;;;;;;24.58;15.77;;;7.00;99.90;;;;;;5110397;28;20023;-46
2023/04/18 02:46:44;;;;;;;27.88;16.83;;;7.00;99.90;;;;;;5105678;28;20039;-46
2023/04/18 02:49:09;;;;;;;26.75;17.83;;;7.00;99.90;;;;;;5110151;27;20339;-46
2023/04/18 02:51:35;;;;;;;27.60;16.65;;;7.00;99.90;;;;;;5109141;28;20422;-49
2023/04/18 02:54:00;;;;;;;28.13;17.42;;;6.90;99.90;;;;;;5110106;28;20023;-46
2023/04/18 02:56:26;;;;;;;30.75;18.15;;;6.90;99.90;;;;;;5109510;28;20016;-46
2023/04/18 02:58:51;;;;;;;27.00;17.33;;;6.90;99.90;;;;;;5109710;28;20418;-45
2023/04/18 03:01:17;;;;;;;30.88;18.40;;;6.90;99.90;;;;;;5109757;28;20228;-46
2023/04/18 03:03:43;;;;;;;28.45;17.40;;;6.90;99.90;;;;;;5109626;28;20030;-46
2023/04/18 03:06:08;;;;;;;23.75;16.35;;;6.90;99.90;;;;;;5109636;28;20016;-46
2023/04/18 03:08:34;;;;;;;26.58;17.38;;;6.90;99.90;;;;;;5109509;28;20032;-47
2023/04/18 03:10:59;;;;;;;27.67;17.25;;;6.90;99.90;;;;;;5106216;28;20354;-47
2023/04/18 03:13:25;;;;;;;28.42;17.58;;;6.90;99.90;;;;;;5109643;28;20020;-46
2023/04/18 03:15:51;;;;;;;25.38;16.67;;;6.90;99.90;;;;;;5109556;28;20465;-46
2023/04/18 03:18:16;;;;;;;26.23;15.80;;;7.00;99.90;;;;;;5109737;27;20032;-46
2023/04/18 03:20:42;;;;;;;30.17;16.58;;;6.90;99.90;;;;;;5108902;28;20030;-46
2023/04/18 03:23:07;;;;;;;28.00;16.95;;;6.90;99.90;;;;;;5090520;28;20040;-46
2023/04/18 03:25:33;;;;;;;27.45;16.48;;;6.90;99.90;;;;;;5090808;28;20026;-48
2023/04/18 03:27:59;;;;;;;23.73;15.70;;;6.90;99.90;;;;;;5109214;28;20397;-46
2023/04/18 03:30:25;;;;;;;27.25;16.55;;;6.90;99.90;;;;;;5108972;28;20054;-46
2023/04/18 03:32:51;;;;;;;29.65;16.45;;;6.90;99.90;;;;;;5109137;28;20170;-46
2023/04/18 03:35:17;;;;;;;26.15;16.63;;;6.90;99.90;;;;;;5109138;28;20133;-47
2023/04/18 03:37:43;;;;;;;24.48;15.20;;;6.90;99.90;;;;;;5107683;28;20023;-49
2023/04/18 03:40:09;;;;;;;26.02;16.52;;;6.90;99.90;;;;;;5108536;28;20039;-48
2023/04/18 03:42:35;;;;;;;27.23;15.45;;;6.80;99.90;;;;;;5090299;28;20085;-46
2023/04/18 03:45:00;;;;;;;25.75;16.20;;;6.80;99.90;;;;;;5108933;28;20597;-46
2023/04/18 03:47:27;;;;;;;28.88;16.85;;;6.90;99.90;;;;;;5108955;28;20161;-47
2023/04/18 03:49:53;;;;;;;27.02;16.10;;;6.80;99.90;;;;;;5109247;27;20020;-46
2023/04/18 03:52:19;;;;;;;25.65;16.45;;;6.80;99.90;;;;;;5108323;28;20020;-47
2023/04/18 03:54:44;;;;;;;23.88;16.13;;;6.80;99.90;;;;;;5108588;28;20024;-46
2023/04/18 03:57:10;;;;;;;27.20;17.13;;;6.80;99.90;;;;;;5108785;28;20565;-49
2023/04/18 03:59:35;;;;;;;25.70;17.25;;;6.80;99.90;;;;;;5108205;28;20487;-46
2023/04/18 04:02:01;;;;;;;25.95;15.93;;;6.80;99.90;;;;;;5108457;28;20084;-47
2023/04/18 04:04:27;;;;;;;21.65;14.35;;;6.80;99.90;;;;;;5108617;28;20019;-46
2023/04/18 04:06:52;;;;;;;28.88;16.48;;;6.80;99.90;;;;;;5090068;28;20500;-40
2023/04/18 04:09:19;;;;;;;27.25;16.40;;;6.80;99.90;;;;;;5089387;28;20016;-40
2023/04/18 04:11:47;;;;;;;26.52;15.88;;;6.80;99.90;;;;;;5089631;28;20403;-40
2023/04/18 04:14:12;;;;;;;26.75;16.85;;;6.80;99.90;;;;;;5108356;28;20024;-40
2023/04/18 04:16:38;;;;;;;24.88;15.63;;;6.80;99.90;;;;;;5108227;28;20026;-40
2023/04/18 04:19:04;;;;;;;26.92;16.00;;;6.80;99.90;;;;;;5108856;27;20408;-40
2023/04/18 04:21:30;;;;;;;30.35;17.25;;;6.80;99.90;;;;;;5106104;28;20401;-40
2023/04/18 04:23:56;;;;;;;27.85;16.77;;;6.80;99.90;;;;;;5107873;28;20277;-41
2023/04/18 04:26:22;;;;;;;26.98;17.13;;;6.80;99.90;;;;;;5089180;28;20505;-40
2023/04/18 04:28:50;;;;;;;28.60;16.88;;;6.90;99.90;;;;;;5107897;28;20030;-40
2023/04/18 04:31:17;;;;;;;24.95;16.08;;;6.80;99.90;;;;;;5107681;28;20019;-40
2023/04/18 04:33:43;;;;;;;25.40;14.95;;;6.80;99.90;;;;;;5108464;28;20049;-40
2023/04/18 04:36:09;;;;;;;25.67;16.15;;;6.80;99.90;;;;;;5108337;28;20016;-40
2023/04/18 04:38:37;;;;;;;26.90;16.67;;;6.90;99.90;;;;;;5108165;28;20027;-39
2023/04/18 04:41:05;;;;;;;26.95;16.38;;;6.90;99.90;;;;;;5107524;28;20042;-40
2023/04/18 04:43:31;;;;;;;28.15;17.13;;;6.80;99.90;;;;;;5089648;28;20110;-40
2023/04/18 04:45:57;;;;;;;24.42;16.25;;;6.80;99.90;;;;;;5107819;28;20510;-39
2023/04/18 04:48:23;;;;;;;26.17;17.08;;;6.70;99.90;;;;;;5108427;27;20031;-40
2023/04/18 04:50:54;;;;;;;30.45;16.83;;;6.80;99.90;;;;;;5107442;28;20043;-40
2023/04/18 04:53:20;;;;;;;24.63;16.67;;;6.80;99.90;;;;;;5107809;28;20130;-39
2023/04/18 04:55:46;;;;;;;27.23;16.38;;;6.80;99.90;;;;;;5107367;28;20118;-40
2023/04/18 04:58:11;;;;;;;28.70;16.80;;;6.70;99.90;;;;;;5089664;28;20520;-40
2023/04/18 05:00:37;;;;;;;27.25;17.38;;;6.80;99.90;;;;;;5107479;28;20038;-40
2023/04/18 05:03:02;;;;;;;26.75;18.05;;;6.70;99.90;;;;;;5107135;28;20405;-40
2023/04/18 05:05:28;;;;;;;28.73;17.58;;;6.80;99.90;;;;;;5107365;28;20061;-40
2023/04/18 05:07:54;;;;;;;25.58;15.98;;;6.80;99.90;;;;;;5107364;28;20461;-40
2023/04/18 05:10:20;;;;;;;24.77;16.13;;;6.70;99.90;;;;;;5106980;28;20028;-40
2023/04/18 05:12:46;;;;;;;29.13;17.55;;;6.80;99.90;;;;;;5106525;28;20038;-40
2023/04/18 05:15:13;;;;;;;27.10;16.75;;;6.80;99.90;;;;;;5087618;28;20024;-40
2023/04/18 05:17:38;;;;;;;29.75;17.05;;;6.80;99.90;;;;;;5106655;28;20027;-44
2023/04/18 05:20:05;;;;;;;33.00;18.13;;;6.90;99.90;;;;;;5106376;28;20262;-40
2023/04/18 05:22:31;;;;;;;25.15;15.90;;;6.90;99.90;;;;;;5108249;27;20036;-47
2023/04/18 05:24:57;;;;;;;27.02;15.88;;;6.80;99.90;;;;;;5107919;27;20023;-40
2023/04/18 05:27:23;;;;;;;31.55;18.25;;;6.80;99.90;;;;;;5088604;28;20028;-41
2023/04/18 05:29:49;;;;;;;30.38;17.48;;;6.90;99.90;;;;;;5107115;28;20461;-40
2023/04/18 05:32:14;;;;;;;25.25;16.50;;;6.90;99.90;;;;;;5106510;28;20130;-40
2023/04/18 05:34:41;;;;;;;25.80;17.15;;;6.90;99.90;;;;;;5106838;28;20028;-40
2023/04/18 05:37:06;;;;;;;25.15;16.67;;;6.90;99.90;;;;;;5106842;28;20023;-40
2023/04/18 05:39:32;;;;;;;28.33;16.42;;;6.90;99.90;;;;;;5106788;28;20019;-40
2023/04/18 05:41:57;;;;;;;28.15;17.65;;;6.90;99.90;;;;;;5106856;28;20217;-41
2023/04/18 05:44:23;;;;;;;26.15;16.48;;;7.00;99.90;;;;;;5107185;28;20103;-40
2023/04/18 05:46:52;;;;;;;25.75;16.35;;;7.00;99.90;;;;;;5107667;28;20035;-40
2023/04/18 05:49:18;;;;;;;32.90;18.70;;;7.10;99.90;;;;;;5107813;28;20099;-40
2023/04/18 05:51:43;;;;;;;26.38;16.27;;;7.10;99.90;;;;;;5107836;28;20081;-40
2023/04/18 05:54:09;;;;;;;30.13;17.17;;;7.00;99.90;;;;;;5089655;28;20036;-40
2023/04/18 05:56:35;;;;;;;35.22;17.80;;;7.00;99.90;;;;;;5107437;28;20039;-41
2023/04/18 05:59:01;;;;;;;25.23;16.10;;;7.10;99.90;;;;;;5106978;28;20206;-40
2023/04/18 06:01:26;;;;;;;25.67;17.08;;;7.20;99.90;;;;;;5110231;28;20438;-40
2023/04/18 06:03:53;;;;;;;25.35;16.83;;;7.30;99.90;;;;;;5111514;28;20027;-40
2023/04/18 06:06:19;;;;;;;28.42;16.45;;;7.40;99.90;;;;;;5111443;28;20028;-40
2023/04/18 06:08:44;;;;;;;24.60;17.10;;;7.50;99.90;;;;;;5115414;27;20092;-40
2023/04/18 06:11:10;;;;;;;23.35;16.02;;;7.60;99.90;;;;;;5113203;27;20027;-40
2023/04/18 06:13:36;;;;;;;26.92;16.75;;;7.60;99.90;;;;;;5113317;27;20023;-40
2023/04/18 06:16:02;;;;;;;25.40;16.25;;;7.60;99.90;;;;;;5095348;28;20076;-40
2023/04/18 06:18:27;;;;;;;26.77;16.15;;;7.60;99.90;;;;;;5115396;27;20011;-40
2023/04/18 06:20:53;;;;;;;26.45;15.98;;;7.70;99.90;;;;;;5099578;27;20404;-40
2023/04/18 06:23:19;;;;;;;26.23;16.33;;;7.60;99.90;;;;;;5120245;27;20100;-40
2023/04/18 06:25:44;;;;;;;30.38;17.17;;;7.60;99.90;;;;;;5125672;27;20020;-40
2023/04/18 06:28:10;;;;;;;33.05;17.55;;;7.70;99.90;;;;;;5119118;27;20035;-40
2023/04/18 06:30:36;;;;;;;26.42;16.70;;;7.70;99.90;;;;;;5107462;28;20027;-40
2023/04/18 06:33:01;;;;;;;23.13;15.65;;;7.60;99.90;;;;;;5119369;27;20015;-40
2023/04/18 06:35:29;;;;;;;25.73;16.23;;;7.60;99.90;;;;;;5119123;27;20078;-40
2023/04/18 06:37:55;;;;;;;24.35;15.60;;;7.60;99.90;;;;;;5111448;27;20112;-40
2023/04/18 06:40:20;;;;;;;22.38;15.10;;;7.70;99.90;;;;;;5110218;28;20095;-40
2023/04/18 06:42:46;;;;;;;23.45;14.80;;;7.80;99.90;;;;;;5110198;28;20061;-40
2023/04/18 06:45:12;;;;;;;24.48;16.40;;;7.90;99.90;;;;;;5110339;28;20019;-40
2023/04/18 06:47:38;;;;;;;27.55;15.80;;;8.00;99.90;;;;;;5110065;28;20182;-40
2023/04/18 06:50:05;;;;;;;21.35;14.55;;;8.00;99.90;;;;;;5109954;28;20440;-40
2023/04/18 06:52:30;;;;;;;21.40;14.90;;;8.00;99.90;;;;;;5110248;28;20039;-40
2023/04/18 06:54:56;;;;;;;21.92;14.70;;;8.00;99.90;;;;;;5092089;28;20525;-39
2023/04/18 06:57:21;;;;;;;22.88;14.85;;;8.20;99.90;;;;;;5110646;27;20027;-40
2023/04/18 06:59:47;;;;;;;20.75;14.50;;;8.40;99.90;;;;;;5109967;28;20055;-40
2023/04/18 07:02:12;;;;;;;22.27;14.93;;;8.40;99.90;;;;;;5110173;28;20028;-40
2023/04/18 07:04:38;;;;;;;20.30;13.88;;;8.40;99.90;;;;;;5110239;28;20328;-40
2023/04/18 07:07:04;;;;;;;20.83;13.55;;;8.50;99.90;;;;;;5110053;28;20027;-40
2023/04/18 07:09:30;;;;;;;22.10;14.52;;;8.60;99.90;;;;;;5109447;28;20079;-40
2023/04/18 07:11:56;;;;;;;22.50;14.45;;;8.80;99.90;;;;;;5108180;28;20024;-40
2023/04/18 07:14:22;;;;;;;19.85;12.75;;;8.90;99.90;;;;;;5110078;28;20028;-41
2023/04/18 07:16:48;;;;;;;20.70;13.68;;;9.00;99.90;;;;;;5110745;28;20050;-41
2023/04/18 07:19:14;;;;;;;19.85;13.68;;;9.20;99.90;;;;;;5110342;28;20028;-41
2023/04/18 07:21:41;;;;;;;22.25;14.02;;;9.30;99.90;;;;;;5091934;28;20031;-41
2023/04/18 07:24:07;;;;;;;17.05;13.13;;;9.30;99.90;;;;;;5110214;28;20062;-41
2023/04/18 07:26:32;;;;;;;18.90;13.27;;;9.50;99.90;;;;;;5110806;28;20128;-41
2023/04/18 07:28:58;;;;;;;18.40;12.77;;;9.70;99.90;;;;;;5109479;27;20031;-40
2023/04/18 07:31:24;;;;;;;22.20;13.77;;;9.70;99.90;;;;;;5090451;28;20030;-40
2023/04/18 07:33:50;;;;;;;15.50;12.05;;;9.90;99.90;;;;;;5108287;28;20012;-40
2023/04/18 07:36:16;;;;;;;17.75;12.95;;;10.00;99.90;;;;;;5109084;28;20108;-40
2023/04/18 07:38:43;;;;;;;18.30;12.40;;;10.00;99.90;;;;;;5109192;28;20024;-40
2023/04/18 07:41:08;;;;;;;19.13;13.57;;;10.20;99.90;;;;;;5109150;28;20077;-41
2023/04/18 07:43:34;;;;;;;19.60;13.25;;;10.30;99.90;;;;;;5109189;28;20063;-40
2023/04/18 07:46:00;;;;;;;16.85;12.15;;;10.50;99.90;;;;;;5110239;28;20138;-41
2023/04/18 07:48:25;;;;;;;16.55;11.85;;;10.40;99.90;;;;;;5109658;28;20562;-40
2023/04/18 07:50:52;;;;;;;17.25;12.40;;;10.80;99.90;;;;;;5109918;28;20034;-40
2023/04/18 07:53:17;;;;;;;16.38;11.65;;;11.00;99.90;;;;;;5109842;28;20024;-40
2023/04/18 07:55:43;;;;;;;16.88;11.93;;;11.20;99.90;;;;;;5091358;28;20038;-41
2023/04/18 07:58:09;;;;;;;14.93;10.60;;;11.20;99.90;;;;;;5095417;28;20477;-39
2023/04/18 08:00:36;;;;;;;15.63;12.02;;;11.40;99.90;;;;;;5109172;28;20042;-40
2023/04/18 08:03:01;;;;;;;15.20;10.93;;;11.60;99.90;;;;;;5109467;28;20354;-40
2023/04/18 08:05:27;;;;;;;14.68;10.95;;;11.90;99.90;;;;;;5107150;27;20092;-41
2023/04/18 08:07:52;;;;;;;14.38;10.60;;;12.10;99.90;;;;;;5109025;27;20496;-40
2023/04/18 08:10:18;;;;;;;15.52;11.02;;;12.40;99.90;;;;;;5097136;27;20028;-40
2023/04/18 08:12:43;;;;;;;15.55;10.30;;;12.60;99.90;;;;;;5107747;28;20358;-41
2023/04/18 08:15:09;;;;;;;13.77;11.23;;;12.90;99.90;;;;;;5093237;28;20317;-41
2023/04/18 08:17:37;;;;;;;12.55;9.95;;;13.40;99.90;;;;;;5119064;27;20423;-41
2023/04/18 08:20:06;;;;;;;15.90;11.77;;;13.00;99.90;;;;;;5112551;27;20020;-41
2023/04/18 08:22:32;;;;;;;13.27;10.38;;;13.10;99.90;;;;;;5100683;28;20616;-42
2023/04/18 08:24:59;;;;;;;14.20;9.98;;;13.40;99.90;;;;;;5116072;27;20023;-43
2023/04/18 08:27:25;;;;;;;14.27;10.90;;;13.40;99.90;;;;;;5123937;27;20026;-42
2023/04/18 08:29:51;;;;;;;14.07;9.88;;;13.90;99.80;;;;;;5107889;28;20023;-43
2023/04/18 08:32:16;;;;;;;12.77;9.20;;;13.90;99.90;;;;;;5106288;28;20123;-42
2023/04/18 08:34:42;;;;;;;12.07;9.38;;;14.00;99.90;;;;;;5101356;28;20458;-41
2023/04/18 08:37:07;;;;;;;13.13;9.23;;;13.70;99.90;;;;;;5104726;28;20100;-41
2023/04/18 08:39:34;;;;;;;14.57;10.73;;;13.80;99.90;;;;;;5107532;28;20062;-41
2023/04/18 08:42:00;;;;;;;13.93;9.65;;;13.80;99.80;;;;;;5088635;28;20024;-41
2023/04/18 08:44:29;;;;;;;11.35;8.95;;;14.00;99.60;;;;;;5108115;28;20031;-41
2023/04/18 08:46:56;;;;;;;14.38;9.38;;;14.20;99.50;;;;;;5107911;28;20038;-42
2023/04/18 08:49:23;;;;;;;11.05;9.27;;;14.50;99.50;;;;;;5107490;28;20693;-41
2023/04/18 08:51:50;;;;;;;13.50;10.18;;;14.30;99.80;;;;;;5107256;28;20023;-40
2023/04/18 08:54:17;;;;;;;11.90;9.27;;;14.70;97.40;;;;;;5107762;28;20057;-41
2023/04/18 08:56:44;;;;;;;14.18;8.55;;;14.80;97.00;;;;;;5107572;28;20016;-39
2023/04/18 08:59:10;;;;;;;12.85;9.38;;;14.70;97.70;;;;;;5120497;27;20070;-41
2023/04/18 09:01:56;;;;;;;12.55;8.68;;;14.90;96.70;;;;;;5110604;27;20487;-40
2023/04/18 09:04:35;;;;;;;10.68;9.32;;;14.40;97.20;;;;;;5110503;27;20034;-41
2023/04/18 09:07:08;;;;;;;11.60;7.72;;;14.10;97.30;;;;;;5127961;27;20027;-40
2023/04/18 09:09:51;;;;;;;13.40;9.57;;;13.90;98.80;;;;;;5128598;27;20570;-41
2023/04/18 09:12:22;;;;;;;12.40;9.15;;;14.00;98.00;;;;;;5127970;27;20559;-40
2023/04/18 09:14:50;;;;;;;12.27;9.55;;;13.80;99.90;;;;;;5143847;27;20479;-40
2023/04/18 09:17:37;;;;;;;10.90;8.05;;;13.60;99.80;;;;;;5125777;27;20764;-40
2023/04/18 09:20:04;;;;;;;11.35;8.77;;;13.60;99.70;;;;;;5089623;28;20231;-41
2023/04/18 09:23:03;;;;;;;10.35;8.13;;;13.40;99.20;;;;;;5107845;28;20028;-41
2023/04/18 09:25:51;;;;;;;11.75;7.63;;;13.50;99.60;;;;;;5073586;28;20121;-40
2023/04/18 09:28:32;;;;;;;10.88;8.98;;;13.70;98.20;;;;;;5112726;27;20049;-41
2023/04/18 09:31:14;;;;;;;11.50;8.57;;;13.50;98.70;;;;;;5107302;28;20039;-40
2023/04/18 09:33:51;;;;;;;11.65;9.45;;;13.10;99.00;;;;;;5107627;28;20020;-41
2023/04/18 09:36:27;;;;;;;13.30;8.35;;;12.70;99.90;;;;;;5107140;28;20297;-41
2023/04/18 09:38:54;;;;;;;12.05;8.68;;;12.40;99.90;;;;;;5107781;28;20023;-41
2023/04/18 09:41:21;;;;;;;11.23;7.45;;;12.30;99.90;;;;;;5107760;28;20038;-40
2023/04/18 09:43:46;;;;;;;10.38;7.60;;;12.10;99.90;;;;;;5107984;28;20035;-41
2023/04/18 09:46:13;;;;;;;11.50;8.73;;;12.00;99.90;;;;;;5107759;28;20019;-41
2023/04/18 09:48:40;;;;;;;11.05;8.40;;;11.80;99.90;;;;;;5106988;28;20165;-40
2023/04/18 09:51:08;;;;;;;11.40;8.07;;;11.70;99.90;;;;;;5107224;28;20028;-40
2023/04/18 09:53:38;;;;;;;10.80;7.70;;;11.70;99.90;;;;;;5107279;28;20034;-41
2023/04/18 09:56:05;;;;;;;11.25;7.78;;;11.70;99.90;;;;;;5107585;28;20015;-41
2023/04/18 09:58:33;;;;;;;11.02;8.13;;;11.70;99.90;;;;;;5111884;28;20051;-40
2023/04/18 10:00:59;;;;;;;11.98;8.90;;;11.60;99.90;;;;;;5106924;28;20493;-42
2023/04/18 10:03:31;;;;;;;14.88;8.45;;;11.50;99.90;;;;;;5107165;28;20038;-41
2023/04/18 10:05:57;;;;;;;10.82;7.55;;;11.50;99.90;;;;;;5107222;28;20031;-42
2023/04/18 10:08:23;;;;;;;12.00;8.25;;;11.60;99.90;;;;;;5106795;28;20437;-41
2023/04/18 10:10:48;;;;;;;10.80;8.60;;;11.80;99.90;;;;;;5106597;28;20031;-41
2023/04/18 10:13:16;;;;;;;11.23;8.50;;;11.70;99.90;;;;;;5088389;28;20031;-41
2023/04/18 10:15:43;;;;;;;13.40;9.00;;;11.60;99.90;;;;;;5106735;28;20501;-41
2023/04/18 10:18:12;;;;;;;15.20;8.65;;;11.50;99.90;;;;;;5106629;28;20373;-40
2023/04/18 10:20:40;;;;;;;13.57;9.63;;;11.50;99.90;;;;;;5106636;28;20079;-40
2023/04/18 10:23:30;;;;;;;13.00;9.15;;;11.50;99.90;;;;;;5106996;28;20085;-41
2023/04/18 10:25:56;;;;;;;;;;;11.30;99.90;;;;;;5107902;28;20030;-41
2023/04/18 10:28:23;;;;;;;12.38;8.85;;;11.30;99.90;;;;;;5111691;28;20343;-41
2023/04/18 10:30:51;;;;;;;14.30;9.10;;;11.30;99.90;;;;;;5088224;28;20039;-40
2023/04/18 10:33:44;;;;;;;15.05;9.43;;;11.40;99.90;;;;;;5088939;28;20020;-41
2023/04/18 10:36:11;;;;;;;15.02;9.65;;;11.60;99.90;;;;;;5107098;28;20567;-42
2023/04/18 10:38:44;;;;;;;14.00;9.57;;;11.50;99.90;;;;;;5107223;28;20076;-41
2023/04/18 10:41:21;;;;;;;11.27;8.63;;;11.70;99.90;;;;;;5106436;28;20024;-40
2023/04/18 10:44:14;;;;;;;12.00;8.55;;;11.80;99.90;;;;;;5106744;28;20032;-41
2023/04/18 10:46:52;;;;;;;9.82;7.38;;;12.00;99.90;;;;;;5108258;28;20043;-39
2023/04/18 10:49:27;;;;;;;9.63;7.05;;;12.10;99.90;;;;;;5110436;28;20030;-39
2023/04/18 10:51:58;;;;;;;10.48;7.82;;;12.30;99.90;;;;;;5110212;28;20028;-40
2023/04/18 10:54:45;;;;;;;11.32;8.27;;;12.20;99.90;;;;;;5110447;28;20020;-39
2023/04/18 10:57:12;;;;;;;9.00;7.13;;;12.10;99.90;;;;;;5113557;27;20024;-40
2023/04/18 10:59:40;;;;;;;11.32;7.65;;;12.10;99.90;;;;;;5110570;27;20061;-40
2023/04/18 11:02:22;;;;;;;8.50;6.55;;;12.30;99.90;;;;;;5110173;28;20559;-40
2023/04/18 11:04:56;;;;;;;9.75;6.97;;;12.60;99.90;;;;;;5110387;28;20426;-41
2023/04/18 11:07:32;;;;;;;11.63;7.55;;;12.90;99.90;;;;;;5110072;28;20435;-40
2023/04/18 11:09:58;;;;;;;13.52;7.93;;;13.20;99.90;;;;;;5110102;28;20027;-40
2023/04/18 11:12:29;;;;;;;10.18;7.72;;;13.30;99.20;;;;;;5110105;28;20045;-41
2023/04/18 11:14:55;;;;;;;9.73;7.60;;;13.50;99.90;;;;;;5091655;28;20020;-41
2023/04/18 11:17:23;;;;;;;10.90;7.78;;;14.00;99.30;;;;;;5109905;28;20545;-42
2023/04/18 11:19:50;;;;;;;11.10;7.53;;;14.10;97.30;;;;;;5110005;28;20069;-41
2023/04/18 11:22:17;;;;;;;11.38;7.18;;;14.30;97.60;;;;;;5110315;28;20036;-41
2023/04/18 11:24:43;;;;;;;8.80;6.70;;;14.60;96.40;;;;;;5110084;28;20420;-41
2023/04/18 11:27:10;;;;;;;8.23;6.68;;;15.20;95.90;;;;;;5113922;27;20544;-41
2023/04/18 11:29:36;;;;;;;9.38;6.60;;;15.30;95.00;;;;;;5110816;27;20036;-41
2023/04/18 11:32:05;;;;;;;9.48;7.28;;;15.30;95.00;;;;;;5109611;28;20038;-40
2023/04/18 11:34:31;;;;;;;8.63;6.47;;;15.70;93.90;;;;;;5071047;28;20044;-41
2023/04/18 11:36:57;;;;;;;8.93;6.80;;;15.50;94.70;;;;;;5089315;28;20055;-42
2023/04/18 11:39:23;;;;;;;6.90;5.80;;;15.50;93.50;;;;;;5088870;28;20477;-41
2023/04/18 11:41:49;;;;;;;8.18;6.38;;;15.00;93.50;;;;;;5089271;28;20036;-40
2023/04/18 11:44:23;;;;;;;7.35;5.55;;;14.80;95.50;;;;;;5089182;28;20485;-42
2023/04/18 11:46:50;;;;;;;7.40;6.40;;;14.50;95.40;;;;;;5089587;28;20143;-41
2023/04/18 11:49:31;;;;;;;9.35;6.78;;;14.20;96.10;;;;;;5089377;28;20051;-41
2023/04/18 11:52:09;;;;;;;8.63;6.13;;;14.30;95.30;;;;;;5089121;28;20247;-41
2023/04/18 11:54:35;;;;;;;6.55;5.53;;;14.50;94.80;;;;;;5089582;28;20453;-40
2023/04/18 11:57:01;;;;;;;13.07;6.35;;;14.70;94.70;;;;;;5094068;27;20054;-42
2023/04/18 11:59:26;;;;;;;8.82;7.10;;;14.80;94.80;;;;;;5111423;27;20028;-40
2023/04/18 12:02:00;;;;;;;8.27;7.05;;;15.00;95.20;;;;;;5129856;27;20530;-41
2023/04/18 12:04:26;;;;;;;10.05;7.20;;;14.80;96.10;;;;;;5145758;27;20027;-40
2023/04/18 12:06:52;;;;;;;9.13;6.65;;;15.40;94.90;;;;;;5111819;27;20509;-41
2023/04/18 12:09:20;;;;;;;9.02;6.90;;;15.80;95.70;;;;;;5130003;27;20378;-40
2023/04/18 12:11:59;;;;;;;12.20;7.93;;;16.10;93.70;;;;;;5129758;27;20304;-41
2023/04/18 12:14:26;;;;;;;12.45;7.40;;;16.60;93.20;;;;;;5129237;27;20026;-41
2023/04/18 12:16:51;;;;;;;10.18;6.85;;;17.00;93.40;;;;;;5129964;27;20049;-41
2023/04/18 12:19:19;;;;;;;8.95;5.88;;;17.50;92.50;;;;;;5129770;27;20031;-41
2023/04/18 12:22:08;;;;;;;10.32;6.60;;;18.00;91.40;;;;;;5114881;27;20027;-40
2023/04/18 12:24:34;;;;;;;10.40;6.50;;;18.00;90.10;;;;;;5107119;28;20093;-40
2023/04/18 12:27:00;;;;;;;7.60;5.95;;;17.90;90.20;;;;;;5111173;27;20078;-41
2023/04/18 12:29:27;;;;;;;9.27;6.13;;;17.50;88.50;;;;;;5111502;27;20066;-40
2023/04/18 12:31:53;;;;;;;8.65;6.25;;;17.60;89.50;;;;;;5144661;27;20026;-41
2023/04/18 12:34:19;;;;;;;8.98;7.07;;;17.90;90.40;;;;;;5096799;28;20089;-40
2023/04/18 12:36:46;;;;;;;9.73;6.65;;;18.00;88.10;;;;;;5108519;28;20034;-40
2023/04/18 12:39:11;;;;;;;9.00;7.15;;;17.90;88.10;;;;;;5108483;28;20059;-40